Time;durP1;ratioP1;P1;durP2;ratioP2;P2;SDS_P1;SDS_P2;PMS_P1;PMS_P2;Temp;Humidity;BMP_temperature;BMP_pressure;BME280_temperature;BME280_humidity;BME280_pressure;Samples;Min_cycle;Max_cycle;Signal;HPM_P1;HPM_P2
2021/03/23 00:00:58;;;;;;;33.55;14.68;;;;;;;22.75;15.04;98403.94;5046130;28;20862;-86
2021/03/23 00:03:33;;;;;;;26.25;11.63;;;;;;;22.38;15.36;98408.28;5069340;28;20078;-85
2021/03/23 00:05:59;;;;;;;36.25;15.73;;;;;;;22.32;15.45;98403.53;5051230;28;20063;-85
2021/03/23 00:08:35;;;;;;;36.75;14.65;;;;;;;22.06;15.75;98402.19;5062820;28;20040;-85
2021/03/23 00:11:12;;;;;;;31.88;13.70;;;;;;;21.92;15.85;98402.31;5067037;28;20072;-86
2021/03/23 00:13:40;;;;;;;32.65;14.80;;;;;;;21.75;16.08;98392.81;5050378;28;20079;-85
2021/03/23 00:16:07;;;;;;;30.33;12.90;;;;;;;21.87;15.94;98388.75;5061025;28;20035;-86
2021/03/23 00:18:34;;;;;;;31.30;13.95;;;;;;;22.37;15.54;98392.72;5059222;28;20399;-85
2021/03/23 00:21:00;;;;;;;33.97;14.73;;;;;;;22.78;15.26;98391.91;5061815;28;20048;-85
2021/03/23 00:23:26;;;;;;;29.73;13.00;;;;;;;22.96;14.95;98389.69;5066756;28;20023;-85
2021/03/23 00:25:53;;;;;;;31.27;14.25;;;;;;;23.08;14.82;98389.91;5069506;28;20068;-85
2021/03/23 00:28:22;;;;;;;34.38;14.40;;;;;;;23.06;14.75;98389.53;5075035;28;20388;-85
2021/03/23 00:30:48;;;;;;;32.53;13.55;;;;;;;22.88;15.22;98390.97;5082767;28;20492;-86
2021/03/23 00:33:14;;;;;;;32.53;13.32;;;;;;;22.29;15.54;98387.59;5077113;28;20064;-85
2021/03/23 00:35:40;;;;;;;31.42;12.90;;;;;;;22.19;15.64;98383.72;5077658;28;20082;-86
2021/03/23 00:38:10;;;;;;;33.58;14.25;;;;;;;22.07;15.83;98383.41;5067454;28;20032;-86
2021/03/23 00:40:38;;;;;;;32.10;12.38;;;;;;;22.07;15.82;98387.00;5074678;28;20037;-85
2021/03/23 00:43:06;;;;;;;29.60;13.43;;;;;;;22.24;15.84;98376.88;5058477;28;20127;-85
2021/03/23 00:45:36;;;;;;;25.35;13.25;;;;;;;22.21;15.85;98386.09;5080572;28;20039;-85
2021/03/23 00:48:02;;;;;;;28.15;12.65;;;;;;;21.75;16.28;98378.84;5084867;28;20050;-83
2021/03/23 00:50:28;;;;;;;22.80;12.20;;;;;;;21.99;16.04;98377.88;5081042;28;20035;-83
2021/03/23 00:52:54;;;;;;;32.13;13.30;;;;;;;21.43;16.74;98381.06;5062162;28;20042;-82
2021/03/23 00:55:20;;;;;;;22.98;11.85;;;;;;;21.87;16.31;98377.56;5081861;28;20354;-82
2021/03/23 00:57:46;;;;;;;28.98;12.45;;;;;;;22.21;15.87;98370.09;5071721;28;20503;-82
2021/03/23 01:00:15;;;;;;;27.05;12.23;;;;;;;22.70;15.49;98382.78;5074255;28;20036;-82
2021/03/23 01:02:43;;;;;;;25.85;12.23;;;;;;;22.74;15.35;98374.34;5074131;28;20112;-82
2021/03/23 01:05:10;;;;;;;28.20;11.55;;;;;;;22.33;15.80;98374.38;5082628;28;20024;-82
2021/03/23 01:07:36;;;;;;;19.00;10.63;;;;;;;22.80;15.32;98370.66;5078472;28;20064;-82
2021/03/23 01:10:05;;;;;;;25.35;11.90;;;;;;;22.53;15.61;98373.34;5083659;28;20036;-82
2021/03/23 01:12:31;;;;;;;28.45;12.98;;;;;;;22.50;15.70;98371.38;5087058;28;20083;-82
2021/03/23 01:14:57;;;;;;;25.20;10.77;;;;;;;22.68;15.47;98371.22;5061283;28;20036;-82
2021/03/23 01:17:23;;;;;;;29.23;12.38;;;;;;;22.00;16.14;98373.09;5098957;28;20036;-82
2021/03/23 01:19:49;;;;;;;23.05;12.80;;;;;;;22.49;15.73;98369.81;5104843;28;20039;-82
2021/03/23 01:22:15;;;;;;;24.88;11.20;;;;;;;22.42;15.78;98369.09;5101703;28;20069;-82
2021/03/23 01:24:42;;;;;;;20.27;9.60;;;;;;;22.79;15.50;98371.09;5107210;28;20107;-82
2021/03/23 01:27:09;;;;;;;25.05;10.68;;;;;;;23.07;15.10;98359.53;5104586;28;20139;-82
2021/03/23 01:29:35;;;;;;;22.02;10.60;;;;;;;23.10;15.13;98367.09;5105570;28;20500;-82
2021/03/23 01:32:01;;;;;;;25.55;11.30;;;;;;;22.99;15.37;98367.22;5100322;28;20161;-82
2021/03/23 01:34:27;;;;;;;24.85;10.50;;;;;;;23.03;15.28;98370.78;5103838;28;20031;-82
2021/03/23 01:36:53;;;;;;;19.90;10.13;;;;;;;22.93;15.34;98370.91;5093926;28;20035;-81
2021/03/23 01:39:19;;;;;;;21.52;11.55;;;;;;;22.81;15.50;98368.66;5093739;28;20080;-82
2021/03/23 01:41:46;;;;;;;33.50;15.38;;;;;;;22.66;15.43;98371.63;5096323;28;20028;-82
2021/03/23 01:44:12;;;;;;;22.15;11.43;;;;;;;21.50;16.69;98375.44;5109936;28;20421;-82
2021/03/23 01:46:44;;;;;;;23.60;12.20;;;;;;;20.44;17.74;98380.72;5108584;28;20379;-82
2021/03/23 01:49:18;;;;;;;20.88;10.65;;;;;;;21.02;17.31;98375.31;5099384;28;20069;-82
2021/03/23 01:51:48;;;;;;;21.50;10.82;;;;;;;21.29;17.04;98370.78;5095369;28;20032;-82
2021/03/23 01:54:22;;;;;;;21.90;11.77;;;;;;;20.87;17.54;98382.16;5093016;28;20398;-82
2021/03/23 01:56:51;;;;;;;23.35;11.75;;;;;;;20.94;17.40;98375.72;5101966;28;20039;-82
2021/03/23 01:59:19;;;;;;;26.25;12.13;;;;;;;20.82;17.48;98374.19;5089998;28;20361;-82
2021/03/23 02:01:46;;;;;;;24.95;11.57;;;;;;;20.66;17.56;98376.66;5104713;28;20088;-82
2021/03/23 02:04:12;;;;;;;24.52;11.88;;;;;;;21.18;17.13;98377.66;5090133;28;20505;-82
2021/03/23 02:06:45;;;;;;;24.00;11.18;;;;;;;21.47;16.94;98375.47;5098939;28;20046;-82
2021/03/23 02:09:33;;;;;;;22.98;10.25;;;;;;;21.80;16.64;98372.00;5102751;28;20036;-83
2021/03/23 02:12:03;;;;;;;21.30;11.82;;;;;;;21.79;16.51;98373.25;5091953;28;20035;-83
2021/03/23 02:14:36;;;;;;;21.52;10.27;;;;;;;22.02;16.35;98367.88;5096457;28;20081;-83
2021/03/23 02:17:33;;;;;;;25.88;10.73;;;;;;;22.41;15.89;98365.47;5097350;28;20549;-83
2021/03/23 02:20:15;;;;;;;19.92;8.90;;;;;;;22.49;15.73;98358.63;5090075;28;20024;-83
2021/03/23 02:23:03;;;;;;;21.30;10.80;;;;;;;22.16;16.09;98362.16;5086266;28;20096;-83
2021/03/23 02:25:29;;;;;;;23.77;10.63;;;;;;;22.21;16.10;98363.72;5100359;28;20648;-83
2021/03/23 02:27:55;;;;;;;20.77;11.23;;;;;;;22.33;16.04;98366.78;5098142;28;20515;-83
2021/03/23 02:30:33;;;;;;;19.42;10.23;;;;;;;22.29;16.03;98366.00;5102188;28;20040;-83
2021/03/23 02:32:59;;;;;;;22.00;12.00;;;;;;;21.71;16.53;98354.94;5089721;28;20024;-83
2021/03/23 02:35:25;;;;;;;26.13;12.30;;;;;;;21.15;17.08;98359.69;5105096;28;20031;-83
2021/03/23 02:37:51;;;;;;;23.08;10.63;;;;;;;21.03;17.24;98362.13;5100725;28;20028;-83
2021/03/23 02:40:18;;;;;;;23.20;11.02;;;;;;;20.82;17.26;98346.28;5098124;28;20043;-83
2021/03/23 02:42:44;;;;;;;21.02;10.40;;;;;;;21.62;16.75;98358.19;5094081;28;20036;-83
2021/03/23 02:45:11;;;;;;;27.52;10.75;;;;;;;21.57;16.56;98358.63;5084252;28;20012;-83
2021/03/23 02:47:37;;;;;;;23.70;9.90;;;;;;;21.59;16.68;98352.63;5101128;28;20044;-83
2021/03/23 02:50:05;;;;;;;22.55;10.10;;;;;;;21.99;16.33;98355.50;5104452;28;20684;-83
2021/03/23 02:52:31;;;;;;;17.88;10.02;;;;;;;22.16;15.95;98353.75;5101074;28;20499;-83
2021/03/23 02:54:57;;;;;;;24.02;9.85;;;;;;;21.64;16.53;98357.78;5103118;28;20028;-83
2021/03/23 02:57:23;;;;;;;21.50;11.73;;;;;;;21.55;16.54;98352.66;5102867;28;20097;-83
2021/03/23 02:59:49;;;;;;;22.20;10.43;;;;;;;21.06;17.04;98350.97;5095307;28;20051;-82
2021/03/23 03:02:15;;;;;;;23.13;10.07;;;;;;;21.35;16.91;98351.63;5103338;28;20475;-83
2021/03/23 03:04:43;;;;;;;19.35;10.60;;;;;;;21.23;16.91;98358.47;5101278;28;20032;-82
2021/03/23 03:07:09;;;;;;;19.45;10.45;;;;;;;20.67;17.57;98348.34;5101966;28;20032;-82
2021/03/23 03:09:35;;;;;;;21.35;10.55;;;;;;;20.78;17.42;98353.88;5098402;28;22544;-82
2021/03/23 03:12:01;;;;;;;20.98;10.00;;;;;;;21.04;17.12;98349.78;5087055;28;20083;-82
2021/03/23 03:14:27;;;;;;;20.55;10.00;;;;;;;20.71;17.39;98356.69;5106026;28;20031;-83
2021/03/23 03:16:53;;;;;;;23.38;10.38;;;;;;;20.95;17.17;98350.22;5099775;28;20058;-82
2021/03/23 03:19:19;;;;;;;18.20;9.73;;;;;;;21.27;16.83;98344.47;5094821;28;20106;-82
2021/03/23 03:21:46;;;;;;;21.83;9.68;;;;;;;21.13;16.70;98342.56;5095465;28;20476;-82
2021/03/23 03:24:12;;;;;;;23.00;10.50;;;;;;;20.66;17.29;98349.53;5083289;28;20060;-82
2021/03/23 03:26:38;;;;;;;20.92;9.45;;;;;;;21.34;16.76;98350.81;5102864;28;20091;-82
2021/03/23 03:29:04;;;;;;;20.00;8.82;;;;;;;20.36;17.46;98351.22;5102578;28;20542;-82
2021/03/23 03:31:32;;;;;;;16.15;9.02;;;;;;;19.87;17.99;98352.88;5096880;28;20430;-81
2021/03/23 03:34:00;;;;;;;19.15;9.18;;;;;;;19.85;18.29;98349.72;5103796;28;20531;-82
2021/03/23 03:36:29;;;;;;;26.83;13.05;;;;;;;19.86;18.02;98356.09;5087060;28;20044;-82
2021/03/23 03:38:56;;;;;;;19.63;9.98;;;;;;;19.43;18.39;98349.69;5105354;28;20161;-82
2021/03/23 03:41:26;;;;;;;20.88;9.85;;;;;;;19.60;18.39;98351.72;5098481;28;20395;-82
2021/03/23 03:43:53;;;;;;;18.45;9.23;;;;;;;20.76;17.28;98347.91;5093348;28;20365;-82
2021/03/23 03:46:20;;;;;;;22.10;9.70;;;;;;;21.08;16.84;98351.38;5111273;28;20032;-81
2021/03/23 03:48:46;;;;;;;16.40;9.07;;;;;;;20.48;17.21;98346.03;5102437;28;20032;-82
2021/03/23 03:51:12;;;;;;;18.08;9.18;;;;;;;20.60;17.24;98342.81;5102419;28;20483;-82
2021/03/23 03:53:38;;;;;;;19.92;9.85;;;;;;;21.19;16.69;98346.50;5104641;28;20127;-82
2021/03/23 03:56:05;;;;;;;19.73;9.13;;;;;;;20.90;16.86;98342.28;5110566;28;20072;-82
2021/03/23 03:58:31;;;;;;;17.30;8.43;;;;;;;21.51;16.39;98332.34;5102263;28;20036;-82
2021/03/23 04:00:57;;;;;;;17.55;8.68;;;;;;;21.47;16.31;98337.13;5102789;28;20119;-82
2021/03/23 04:03:29;;;;;;;15.57;7.32;;;;;;;22.07;15.75;98338.69;5105073;28;20102;-82
2021/03/23 04:05:56;;;;;;;19.15;9.02;;;;;;;21.62;16.19;98346.22;5094509;28;20036;-82
2021/03/23 04:08:28;;;;;;;18.77;8.18;;;;;;;21.74;16.04;98337.34;5102595;28;20043;-82
2021/03/23 04:10:55;;;;;;;13.98;7.18;;;;;;;22.47;15.48;98344.25;5111488;28;20036;-82
2021/03/23 04:13:22;;;;;;;15.30;7.85;;;;;;;22.25;15.51;98347.66;5102387;28;20677;-84
2021/03/23 04:15:49;;;;;;;16.13;7.20;;;;;;;22.41;15.42;98345.09;5103330;28;20376;-84
2021/03/23 04:18:18;;;;;;;19.42;7.60;;;;;;;22.41;15.26;98348.69;5077800;28;20114;-84
2021/03/23 04:20:44;;;;;;;15.52;7.05;;;;;;;22.56;15.24;98354.94;5100355;28;20023;-83
2021/03/23 04:23:20;;;;;;;13.25;6.55;;;;;;;22.31;15.58;98355.19;5091941;28;20044;-83
2021/03/23 04:25:46;;;;;;;15.90;7.13;;;;;;;22.51;15.28;98366.59;5108478;28;20024;-83
2021/03/23 04:28:12;;;;;;;13.45;6.68;;;;;;;22.61;15.14;98363.69;5107517;28;20039;-83
2021/03/23 04:30:38;;;;;;;15.30;6.38;;;;;;;22.51;15.23;98358.19;5113966;28;20050;-84
2021/03/23 04:33:04;;;;;;;10.50;5.78;;;;;;;21.97;15.75;98359.94;5101292;28;20045;-84
2021/03/23 04:35:58;;;;;;;14.02;6.20;;;;;;;22.25;15.45;98373.66;5102524;28;20082;-83
2021/03/23 04:38:36;;;;;;;13.63;6.93;;;;;;;22.49;15.23;98372.59;5104957;28;20103;-83
2021/03/23 04:41:07;;;;;;;13.50;6.32;;;;;;;22.41;15.23;98367.47;5097567;28;20039;-83
2021/03/23 04:43:36;;;;;;;14.75;5.50;;;;;;;22.17;15.42;98369.31;5096000;28;20028;-83
2021/03/23 04:46:03;;;;;;;13.88;6.35;;;;;;;22.38;15.42;98362.75;5100829;28;20501;-84
2021/03/23 04:48:29;;;;;;;15.15;6.45;;;;;;;22.50;15.33;98365.78;5096674;28;20036;-84
2021/03/23 04:50:55;;;;;;;13.75;6.78;;;;;;;22.47;15.36;98371.44;5087463;28;20081;-84
2021/03/23 04:53:23;;;;;;;13.88;6.43;;;;;;;22.46;15.31;98376.22;5079520;28;20418;-84
2021/03/23 04:55:49;;;;;;;13.75;7.07;;;;;;;22.30;15.35;98362.00;5103890;28;20479;-84
2021/03/23 04:58:16;;;;;;;32.15;13.52;;;;;;;22.10;15.52;98363.03;5086107;28;20036;-84
2021/03/23 05:00:42;;;;;;;24.25;11.18;;;;;;;21.50;16.01;98369.84;5092872;28;20480;-84
2021/03/23 05:03:17;;;;;;;33.88;13.13;;;;;;;22.16;15.56;98369.75;5101367;28;20544;-84
2021/03/23 05:05:43;;;;;;;34.85;12.75;;;;;;;22.61;15.20;98369.28;5104021;28;20036;-84
2021/03/23 05:08:09;;;;;;;38.75;15.52;;;;;;;22.87;15.10;98375.41;5108473;28;20031;-84
2021/03/23 05:10:36;;;;;;;25.70;11.10;;;;;;;23.17;14.72;98375.41;5104755;28;20500;-85
2021/03/23 05:13:03;;;;;;;35.00;13.35;;;;;;;23.37;14.54;98359.53;5105061;28;20036;-82
2021/03/23 05:15:29;;;;;;;22.60;9.35;;;;;;;23.37;14.72;98373.53;5098047;28;20487;-82
2021/03/23 05:17:56;;;;;;;31.30;13.52;;;;;;;23.52;14.45;98374.13;5107115;28;20031;-81
2021/03/23 05:20:22;;;;;;;22.50;8.80;;;;;;;23.43;14.57;98369.06;5091452;28;20036;-82
2021/03/23 05:22:49;;;;;;;22.42;10.40;;;;;;;23.62;14.38;98368.34;5078452;28;20036;-82
2021/03/23 05:25:16;;;;;;;22.35;9.32;;;;;;;23.77;14.21;98368.94;5081498;28;20040;-82
2021/03/23 05:27:42;;;;;;;19.20;9.68;;;;;;;23.99;14.20;98362.53;5078522;28;20032;-82
2021/03/23 05:30:09;;;;;;;21.63;10.00;;;;;;;24.19;13.90;98370.25;5080043;28;20040;-82
2021/03/23 05:32:35;;;;;;;27.33;11.60;;;;;;;24.13;13.97;98369.16;5087107;28;20042;-82
2021/03/23 05:35:03;;;;;;;24.23;9.45;;;;;;;23.88;14.21;98375.16;5094907;28;20036;-83
2021/03/23 05:37:29;;;;;;;26.83;13.13;;;;;;;23.78;14.20;98370.53;5084556;28;20024;-83
2021/03/23 05:39:55;;;;;;;25.70;10.05;;;;;;;23.85;14.47;98376.78;5062719;28;20151;-84
2021/03/23 05:42:35;;;;;;;22.30;9.18;;;;;;;23.57;14.41;98370.84;5080811;28;20045;-84
2021/03/23 05:45:16;;;;;;;20.00;9.88;;;;;;;23.60;14.37;98373.59;5079538;28;20032;-83
2021/03/23 05:47:43;;;;;;;17.50;9.00;;;;;;;23.76;14.50;98373.72;5086853;28;20062;-84
2021/03/23 05:50:28;;;;;;;17.27;8.65;;;;;;;22.93;15.04;98384.91;5085565;28;20059;-84
2021/03/23 05:53:16;;;;;;;19.80;9.73;;;;;;;21.91;15.75;98381.16;5086881;28;20131;-84
2021/03/23 05:55:45;;;;;;;19.40;8.23;;;;;;;22.17;15.78;98388.91;5091280;28;20395;-84
2021/03/23 05:58:17;;;;;;;17.00;8.43;;;;;;;22.02;16.04;98387.44;5093294;28;20388;-84
2021/03/23 06:01:10;;;;;;;19.88;8.48;;;;;;;22.53;15.64;98390.13;5089779;28;20028;-84
2021/03/23 06:03:45;;;;;;;21.95;9.93;;;;;;;23.19;15.10;98389.78;5084340;28;20045;-84
2021/03/23 06:06:41;;;;;;;37.15;16.15;;;;;;;23.30;14.94;98387.63;5074084;28;20039;-84
2021/03/23 06:09:16;;;;;;;16.17;8.20;;;;;;;23.81;14.58;98389.28;5071455;28;20455;-84
2021/03/23 06:11:42;;;;;;;20.42;8.80;;;;;;;23.94;14.74;98387.47;5084517;28;20070;-83
2021/03/23 06:14:22;;;;;;;18.70;9.05;;;;;;;24.01;14.47;98387.38;5086816;28;20034;-84
2021/03/23 06:17:13;;;;;;;18.00;8.57;;;;;;;23.08;15.21;98394.72;5061912;28;20040;-84
2021/03/23 06:19:39;;;;;;;;;;;;;;;22.83;15.49;98397.81;5076884;28;20032;-84
2021/03/23 06:22:27;;;;;;;25.13;9.95;;;;;;;21.57;16.18;98394.16;5070320;28;19908;-83
2021/03/23 06:25:03;;;;;;;11.50;5.05;;;;;;;21.39;16.56;98404.66;5081446;28;20042;-85
2021/03/23 06:27:52;;;;;;;14.75;7.05;;;;;;;21.59;16.53;98394.53;5076356;28;20037;-85
2021/03/23 06:30:36;;;;;;;14.05;6.50;;;;;;;22.27;16.05;98399.19;5079546;28;20464;-87
2021/03/23 06:33:04;;;;;;;14.77;7.20;;;;;;;21.56;16.52;98400.97;5075842;28;20047;-85
2021/03/23 06:35:44;;;;;;;19.30;7.45;;;;;;;21.23;16.84;98396.78;5063424;28;20043;-86
2021/03/23 06:38:29;;;;;;;20.73;7.47;;;;;;;22.06;16.18;98401.38;5082740;28;20376;-88
2021/03/23 06:41:21;;;;;;;23.05;8.45;;;;;;;22.90;15.75;98399.75;5082030;28;20141;-89
2021/03/23 06:43:56;;;;;;;22.77;8.65;;;;;;;22.45;15.81;98402.59;5085208;28;20020;-92
2021/03/23 06:46:26;;;;;;;19.58;7.35;;;;;;;22.51;15.73;98384.16;5080068;28;20024;-89
2021/03/23 06:49:14;;;;;;;16.23;7.65;;;;;;;22.38;15.67;98404.69;5072498;28;20040;-89
2021/03/23 06:52:01;;;;;;;28.30;10.00;;;;;;;22.14;16.03;98406.53;5075172;28;20033;-88
2021/03/23 06:54:38;;;;;;;22.33;9.02;;;;;;;21.53;16.70;98408.16;5080548;28;20032;-88
2021/03/23 06:57:07;;;;;;;12.98;5.97;;;;;;;20.96;17.24;98412.41;5088815;28;20067;-89
2021/03/23 06:59:57;;;;;;;14.15;6.53;;;;;;;21.33;16.55;98413.44;5087545;28;20119;-89
2021/03/23 07:02:35;;;;;;;14.10;5.00;;;;;;;20.39;17.64;98406.22;5039227;28;20117;-89
2021/03/23 07:05:20;;;;;;;18.08;6.53;;;;;;;20.05;18.06;98405.81;5074808;28;20024;-88
2021/03/23 07:07:54;;;;;;;11.50;5.72;;;;;;;19.41;18.70;98409.75;5079224;28;20590;-88
2021/03/23 07:10:23;;;;;;;15.85;6.95;;;;;;;19.21;19.69;98407.28;5092930;28;20049;-88
2021/03/23 07:12:50;;;;;;;13.70;5.38;;;;;;;19.84;18.67;98406.63;5068572;28;20452;-88
2021/03/23 07:15:24;;;;;;;9.50;4.47;;;;;;;20.89;17.54;98401.25;5081452;28;20415;-86
2021/03/23 07:17:56;;;;;;;18.40;6.85;;;;;;;21.48;16.97;98399.41;5072579;28;20114;-89
2021/03/23 07:20:27;;;;;;;13.45;6.30;;;;;;;20.55;17.42;98399.00;5069314;28;20032;-90
2021/03/23 07:22:54;;;;;;;17.77;6.18;;;;;;;20.78;17.62;98392.16;5093680;28;20064;-88
2021/03/23 07:25:40;;;;;;;18.27;7.95;;;;;;;20.18;17.89;98390.28;5091590;28;20063;-89
2021/03/23 07:28:18;;;;;;;17.92;7.82;;;;;;;20.51;17.82;98391.84;5086445;28;20036;-88
2021/03/23 07:30:50;;;;;;;14.02;6.25;;;;;;;19.90;18.54;98391.09;5088857;28;20029;-87
2021/03/23 07:33:32;;;;;;;12.35;5.82;;;;;;;20.77;17.75;98405.28;5082062;28;20502;-86
2021/03/23 07:36:01;;;;;;;11.15;5.82;;;;;;;20.75;18.01;98404.91;5077713;28;20024;-87
2021/03/23 07:38:42;;;;;;;12.65;5.65;;;;;;;21.96;16.68;98403.09;5086442;28;20028;-87
2021/03/23 07:41:25;;;;;;;8.75;4.88;;;;;;;22.18;16.75;98400.88;5090489;28;20067;-87
2021/03/23 07:44:03;;;;;;;9.60;5.45;;;;;;;22.22;16.18;98405.22;5088638;28;20044;-87
2021/03/23 07:46:44;;;;;;;12.82;5.47;;;;;;;22.38;16.24;98405.47;5064605;28;20039;-87
2021/03/23 07:49:41;;;;;;;13.05;5.10;;;;;;;22.05;16.58;98405.41;5075097;28;20039;-87
2021/03/23 07:52:21;;;;;;;12.80;5.50;;;;;;;22.47;16.00;98405.00;5078215;28;20105;-87
2021/03/23 07:54:48;;;;;;;12.30;5.75;;;;;;;21.49;17.09;98403.78;5082790;28;20180;-87
2021/03/23 07:57:23;;;;;;;15.60;6.53;;;;;;;19.99;18.41;98405.44;5078518;28;20387;-87
2021/03/23 08:00:13;;;;;;;9.88;5.43;;;;;;;17.95;20.45;98416.50;5083405;28;20055;-87
2021/03/23 08:03:06;;;;;;;13.57;5.38;;;;;;;18.45;20.29;98414.91;5085427;28;20108;-87
2021/03/23 08:05:58;;;;;;;20.38;7.47;;;;;;;19.92;18.82;98399.88;5088799;28;20032;-87
2021/03/23 08:08:36;;;;;;;11.82;5.78;;;;;;;18.05;20.86;98412.22;5087048;28;20392;-87
2021/03/23 08:11:14;;;;;;;14.90;5.60;;;;;;;17.74;21.23;98418.28;5069265;28;20547;-87
2021/03/23 08:14:04;;;;;;;17.70;7.25;;;;;;;17.76;20.83;98408.41;5069249;28;20396;-87
2021/03/23 08:16:50;;;;;;;12.82;6.55;;;;;;;18.88;19.92;98406.78;5084596;28;20529;-87
2021/03/23 08:19:16;;;;;;;11.32;6.05;;;;;;;18.97;20.04;98408.00;5069476;28;20052;-87
2021/03/23 08:21:59;;;;;;;19.85;7.85;;;;;;;17.49;21.56;98414.47;5063444;28;20040;-87
2021/03/23 08:24:41;;;;;;;17.27;8.85;;;;;;;17.94;21.11;98403.00;5084073;28;20035;-87
2021/03/23 08:27:35;;;;;;;20.48;8.13;;;;;;;18.27;20.43;98416.75;5082864;28;20044;-87
2021/03/23 08:30:06;;;;;;;12.98;6.78;;;;;;;18.40;21.15;98420.78;5081362;28;20105;-86
2021/03/23 08:33:00;;;;;;;15.98;7.32;;;;;;;18.94;19.94;98421.91;5084949;28;20051;-87
2021/03/23 08:35:48;;;;;;;19.23;8.15;;;;;;;18.74;20.23;98410.28;5084271;28;20039;-86
2021/03/23 08:38:20;;;;;;;19.98;8.65;;;;;;;18.98;19.85;98409.59;5081993;28;20036;-87
2021/03/23 08:41:16;;;;;;;14.00;6.28;;;;;;;19.57;19.83;98407.38;5082091;28;20429;-87
2021/03/23 08:43:44;;;;;;;20.02;8.55;;;;;;;18.61;20.79;98409.03;5084771;28;20143;-88
2021/03/23 08:46:21;;;;;;;13.35;6.60;;;;;;;19.56;19.49;98414.13;5087061;28;20025;-87
2021/03/23 08:48:59;;;;;;;18.77;7.28;;;;;;;18.59;20.87;98411.41;5089709;28;20070;-90
2021/03/23 08:51:28;;;;;;;15.63;6.82;;;;;;;18.72;20.69;98409.88;5089625;28;20120;-86
2021/03/23 08:54:00;;;;;;;16.15;6.75;;;;;;;18.54;21.28;98409.78;5079731;28;20437;-86
2021/03/23 08:56:42;;;;;;;19.25;7.32;;;;;;;18.61;20.37;98407.06;5085482;28;20024;-86
2021/03/23 08:59:39;;;;;;;14.77;7.18;;;;;;;18.13;21.22;98411.09;5086213;28;20067;-87
2021/03/23 09:02:08;;;;;;;17.63;7.95;;;;;;;17.71;21.75;98417.06;5087814;28;20042;-86
2021/03/23 09:04:56;;;;;;;21.45;9.82;;;;;;;17.45;21.96;98419.19;5072456;28;20028;-87
2021/03/23 09:07:28;;;;;;;16.42;8.45;;;;;;;17.75;22.25;98426.25;5075693;28;20039;-87
2021/03/23 09:09:56;;;;;;;21.40;8.25;;;;;;;19.47;20.18;98417.31;5088649;28;20081;-86
2021/03/23 09:12:34;;;;;;;17.17;8.23;;;;;;;19.36;20.11;98415.69;5089184;28;20066;-86
2021/03/23 09:15:10;;;;;;;20.80;8.35;;;;;;;19.13;20.13;98410.44;5082359;28;20036;-87
2021/03/23 09:18:22;;;;;;;25.13;11.18;;;;;;;19.15;20.07;98430.31;5063342;28;20070;-86
2021/03/23 09:20:51;;;;;;;17.83;8.55;;;;;;;19.35;20.35;98416.88;5067843;28;20055;-87
2021/03/23 09:23:17;;;;;;;17.55;7.82;;;;;;;20.34;19.30;98414.97;5083899;28;20028;-87
2021/03/23 09:25:57;;;;;;;18.23;7.40;;;;;;;20.31;19.66;98424.94;5086156;28;20484;-87
2021/03/23 09:28:29;;;;;;;21.05;7.82;;;;;;;19.61;20.22;98411.78;5079634;28;20498;-86
2021/03/23 09:31:25;;;;;;;18.10;7.28;;;;;;;21.04;18.88;98412.00;5080093;28;20383;-86
2021/03/23 09:33:53;;;;;;;18.25;8.02;;;;;;;21.97;17.86;98410.25;5043022;28;20056;-86
2021/03/23 09:36:39;;;;;;;18.65;8.02;;;;;;;19.86;19.59;98403.44;5087618;28;20063;-87
2021/03/23 09:39:14;;;;;;;17.65;7.85;;;;;;;20.45;19.31;98410.97;5086835;28;20080;-87
2021/03/23 09:41:43;;;;;;;17.77;7.85;;;;;;;20.17;19.94;98405.41;5068623;28;20115;-86
2021/03/23 09:44:19;;;;;;;15.25;7.53;;;;;;;20.75;19.08;98396.53;5077995;28;20032;-86
2021/03/23 09:46:52;;;;;;;21.98;7.70;;;;;;;20.58;19.52;98403.00;5082578;28;20565;-87
2021/03/23 09:49:28;;;;;;;15.27;7.47;;;;;;;20.07;20.05;98399.84;5078191;28;20032;-88
2021/03/23 09:52:09;;;;;;;12.20;6.85;;;;;;;20.16;20.05;98400.25;5078056;28;20115;-87
2021/03/23 09:54:35;;;;;;;;;;;;;;;20.35;20.11;98397.06;5077895;28;20032;-87
2021/03/23 09:57:16;;;;;;;19.15;7.97;;;;;;;21.22;19.12;98386.78;5081686;28;19961;-87
2021/03/23 09:59:55;;;;;;;15.43;7.00;;;;;;;22.66;18.04;98396.81;5064051;28;20041;-88
2021/03/23 10:02:27;;;;;;;26.45;10.50;;;;;;;21.71;18.68;98396.84;5085757;28;20032;-86
2021/03/23 10:04:54;;;;;;;15.77;7.32;;;;;;;21.79;19.07;98381.63;5076668;28;20036;-89
2021/03/23 10:07:35;;;;;;;22.90;8.80;;;;;;;20.47;20.42;98388.25;5080739;28;20024;-89
2021/03/23 10:10:27;;;;;;;;;;;;;;;19.24;21.93;98395.38;5084343;28;20035;-86
2021/03/23 10:12:56;;;;;;;13.63;7.40;;;;;;;19.94;21.57;98396.66;5056051;28;19923;-88
2021/03/23 10:15:28;;;;;;;23.40;8.93;;;;;;;20.80;20.53;98398.91;5054958;28;20036;-88
2021/03/23 10:18:18;;;;;;;17.58;7.95;;;;;;;19.72;21.59;98387.50;5063542;28;21646;-87
2021/03/23 10:20:47;;;;;;;20.30;10.52;;;;;;;20.67;20.90;98383.81;5062695;28;20082;-89
2021/03/23 10:23:14;;;;;;;16.95;8.35;;;;;;;22.24;19.33;98388.81;5056611;28;20032;-87
2021/03/23 10:25:44;;;;;;;22.55;8.13;;;;;;;22.51;18.68;98374.97;5065344;28;20078;-88
2021/03/23 10:28:33;;;;;;;17.25;8.23;;;;;;;21.51;19.19;98379.84;5056021;28;20119;-87
2021/03/23 10:31:05;;;;;;;18.92;8.43;;;;;;;20.04;21.19;98384.72;5058054;28;20051;-88
2021/03/23 10:33:34;;;;;;;16.55;7.85;;;;;;;20.88;20.52;98394.09;5045938;28;20036;-87
2021/03/23 10:36:07;;;;;;;18.58;7.82;;;;;;;21.15;20.39;98392.41;5053749;28;20044;-87
2021/03/23 10:38:37;;;;;;;17.80;8.05;;;;;;;21.35;19.81;98388.69;5051719;28;20035;-87
2021/03/23 10:41:19;;;;;;;23.48;9.88;;;;;;;18.84;22.53;98398.41;5055192;28;20048;-86
2021/03/23 10:43:48;;;;;;;24.63;10.85;;;;;;;19.88;21.67;98393.47;5053370;28;20051;-87
2021/03/23 10:46:40;;;;;;;17.00;9.45;;;;;;;18.90;22.95;98387.72;5056798;28;20787;-88
2021/03/23 10:49:28;;;;;;;18.10;8.75;;;;;;;20.22;21.23;98393.88;5056957;28;20025;-90
2021/03/23 10:51:58;;;;;;;18.75;9.20;;;;;;;19.03;23.12;98402.84;5038272;28;20503;-91
2021/03/23 10:54:31;;;;;;;23.48;9.35;;;;;;;19.28;22.88;98404.53;5055755;28;20033;-88
2021/03/23 10:57:33;;;;;;;20.55;10.02;;;;;;;19.23;22.84;98399.31;5059276;28;20052;-89
2021/03/23 11:00:26;;;;;;;21.40;9.35;;;;;;;19.26;23.37;98406.09;5034460;28;20078;-88
2021/03/23 11:02:53;;;;;;;24.27;10.95;;;;;;;20.70;21.37;98388.56;5066409;28;20082;-88
2021/03/23 11:05:22;;;;;;;19.42;9.60;;;;;;;20.39;21.83;98389.47;5062010;28;20037;-88
2021/03/23 11:07:51;;;;;;;25.25;10.25;;;;;;;20.91;21.32;98385.72;5058437;28;20053;-91
2021/03/23 11:10:20;;;;;;;19.40;9.95;;;;;;;20.76;21.25;98388.97;5060709;28;20045;-88
2021/03/23 11:12:46;;;;;;;23.55;9.77;;;;;;;20.76;21.24;98392.56;5076155;28;20060;-88
2021/03/23 11:15:14;;;;;;;22.60;9.55;;;;;;;20.85;21.05;98387.34;5078547;28;20130;-89
2021/03/23 11:17:47;;;;;;;17.15;8.20;;;;;;;21.69;20.46;98388.09;5083829;28;20020;-88
2021/03/23 11:20:39;;;;;;;23.63;10.50;;;;;;;21.30;20.86;98380.78;5086882;28;20138;-87
2021/03/23 11:23:31;;;;;;;24.83;9.85;;;;;;;22.30;20.03;98378.00;5075072;28;20020;-86
2021/03/23 11:25:58;;;;;;;19.58;8.55;;;;;;;21.36;20.97;98397.88;5078786;28;20395;-86
2021/03/23 11:28:25;;;;;;;17.38;8.25;;;;;;;21.28;21.24;98385.19;5077196;28;20028;-87
2021/03/23 11:30:51;;;;;;;17.02;7.70;;;;;;;22.37;20.06;98378.72;5077542;28;20046;-88
2021/03/23 11:33:18;;;;;;;18.88;9.07;;;;;;;21.39;21.39;98376.72;5075373;28;20029;-87
2021/03/23 11:35:49;;;;;;;19.38;8.60;;;;;;;21.80;21.01;98372.00;5079599;28;20037;-87
2021/03/23 11:38:15;;;;;;;;;;;;;;;20.25;22.53;98362.44;5082720;28;20029;-87
2021/03/23 11:40:42;;;;;;;18.27;7.65;;;;;;;20.76;22.42;98373.03;5082199;28;20418;-88
2021/03/23 11:43:32;;;;;;;17.08;7.03;;;;;;;21.41;21.67;98374.31;5080500;28;20064;-87
2021/03/23 11:46:26;;;;;;;18.95;7.50;;;;;;;21.19;21.62;98371.63;5079611;28;20078;-89
2021/03/23 11:49:04;;;;;;;18.10;9.00;;;;;;;20.91;21.86;98368.19;5040433;28;20047;-87
2021/03/23 11:51:30;;;;;;;13.10;7.28;;;;;;;21.55;21.37;98374.22;5087993;28;20036;-88